sensor_id;sensor_type;location;lat;lon;timestamp;P1;durP1;ratioP1;P2;durP2;ratioP2
76298;SDS011;65105;42.334;23.550;2022-11-15T00:01:34;9.63;;;8.38;;
76298;SDS011;65105;42.334;23.550;2022-11-15T00:04:02;9.37;;;8.67;;
76298;SDS011;65105;42.334;23.550;2022-11-15T00:06:30;10.30;;;9.57;;
76298;SDS011;65105;42.334;23.550;2022-11-15T00:08:59;8.77;;;8.15;;
76298;SDS011;65105;42.334;23.550;2022-11-15T00:11:25;8.03;;;7.43;;
76298;SDS011;65105;42.334;23.550;2022-11-15T00:13:54;10.18;;;9.00;;
76298;SDS011;65105;42.334;23.550;2022-11-15T00:16:20;10.15;;;9.15;;
76298;SDS011;65105;42.334;23.550;2022-11-15T00:18:46;9.40;;;8.50;;
76298;SDS011;65105;42.334;23.550;2022-11-15T00:21:11;11.95;;;10.15;;
76298;SDS011;65105;42.334;23.550;2022-11-15T00:23:38;9.53;;;8.73;;
76298;SDS011;65105;42.334;23.550;2022-11-15T00:26:03;9.95;;;9.18;;
76298;SDS011;65105;42.334;23.550;2022-11-15T00:28:29;10.00;;;9.30;;
76298;SDS011;65105;42.334;23.550;2022-11-15T00:30:59;8.00;;;7.50;;
76298;SDS011;65105;42.334;23.550;2022-11-15T00:33:28;8.02;;;7.47;;
76298;SDS011;65105;42.334;23.550;2022-11-15T00:35:58;8.43;;;7.82;;
76298;SDS011;65105;42.334;23.550;2022-11-15T00:38:32;9.30;;;8.70;;
76298;SDS011;65105;42.334;23.550;2022-11-15T00:41:02;7.97;;;7.47;;
76298;SDS011;65105;42.334;23.550;2022-11-15T00:43:29;7.22;;;6.72;;
76298;SDS011;65105;42.334;23.550;2022-11-15T00:45:54;7.37;;;6.87;;
76298;SDS011;65105;42.334;23.550;2022-11-15T00:48:20;8.70;;;8.10;;
76298;SDS011;65105;42.334;23.550;2022-11-15T00:50:45;8.17;;;7.67;;
76298;SDS011;65105;42.334;23.550;2022-11-15T00:53:11;7.40;;;6.77;;
76298;SDS011;65105;42.334;23.550;2022-11-15T00:55:36;9.57;;;8.82;;
76298;SDS011;65105;42.334;23.550;2022-11-15T00:58:02;9.83;;;8.77;;
76298;SDS011;65105;42.334;23.550;2022-11-15T01:00:27;7.87;;;7.27;;
76298;SDS011;65105;42.334;23.550;2022-11-15T01:02:53;8.67;;;8.07;;
76298;SDS011;65105;42.334;23.550;2022-11-15T01:05:18;6.55;;;6.03;;
76298;SDS011;65105;42.334;23.550;2022-11-15T01:07:43;8.70;;;7.93;;
76298;SDS011;65105;42.334;23.550;2022-11-15T01:10:09;9.40;;;8.67;;
76298;SDS011;65105;42.334;23.550;2022-11-15T01:12:34;9.10;;;8.37;;
76298;SDS011;65105;42.334;23.550;2022-11-15T01:15:00;7.90;;;7.20;;
76298;SDS011;65105;42.334;23.550;2022-11-15T01:17:25;10.47;;;9.47;;
76298;SDS011;65105;42.334;23.550;2022-11-15T01:19:51;8.35;;;7.85;;
76298;SDS011;65105;42.334;23.550;2022-11-15T01:22:17;8.57;;;7.87;;
76298;SDS011;65105;42.334;23.550;2022-11-15T01:24:42;9.83;;;9.03;;
76298;SDS011;65105;42.334;23.550;2022-11-15T01:27:08;6.97;;;6.47;;
76298;SDS011;65105;42.334;23.550;2022-11-15T01:29:33;8.37;;;7.73;;
76298;SDS011;65105;42.334;23.550;2022-11-15T01:31:59;7.73;;;7.23;;
76298;SDS011;65105;42.334;23.550;2022-11-15T01:34:24;7.23;;;6.73;;
76298;SDS011;65105;42.334;23.550;2022-11-15T01:36:49;7.53;;;7.03;;
76298;SDS011;65105;42.334;23.550;2022-11-15T01:39:15;8.23;;;7.73;;
76298;SDS011;65105;42.334;23.550;2022-11-15T01:41:40;9.40;;;8.70;;
76298;SDS011;65105;42.334;23.550;2022-11-15T01:46:56;7.97;;;7.47;;
76298;SDS011;65105;42.334;23.550;2022-11-15T01:49:24;9.55;;;8.93;;
76298;SDS011;65105;42.334;23.550;2022-11-15T01:51:52;7.88;;;7.22;;
76298;SDS011;65105;42.334;23.550;2022-11-15T01:54:19;7.60;;;7.10;;
76298;SDS011;65105;42.334;23.550;2022-11-15T01:56:48;7.27;;;6.73;;
76298;SDS011;65105;42.334;23.550;2022-11-15T01:59:18;7.85;;;7.32;;
76298;SDS011;65105;42.334;23.550;2022-11-15T02:01:44;9.30;;;8.48;;
76298;SDS011;65105;42.334;23.550;2022-11-15T02:04:12;8.70;;;8.10;;
76298;SDS011;65105;42.334;23.550;2022-11-15T02:06:41;9.50;;;8.80;;
76298;SDS011;65105;42.334;23.550;2022-11-15T02:09:08;7.63;;;7.03;;
76298;SDS011;65105;42.334;23.550;2022-11-15T02:11:33;7.18;;;6.68;;
76298;SDS011;65105;42.334;23.550;2022-11-15T02:13:59;9.20;;;8.40;;
76298;SDS011;65105;42.334;23.550;2022-11-15T02:19:32;7.68;;;7.10;;
76298;SDS011;65105;42.334;23.550;2022-11-15T02:30:20;6.47;;;6.03;;
76298;SDS011;65105;42.334;23.550;2022-11-15T02:33:11;6.05;;;5.65;;
76298;SDS011;65105;42.334;23.550;2022-11-15T02:44:03;7.85;;;7.35;;
76298;SDS011;65105;42.334;23.550;2022-11-15T02:46:37;7.33;;;6.83;;
76298;SDS011;65105;42.334;23.550;2022-11-15T02:49:25;7.60;;;7.00;;
76298;SDS011;65105;42.334;23.550;2022-11-15T02:51:53;8.35;;;7.75;;
76298;SDS011;65105;42.334;23.550;2022-11-15T02:54:21;7.72;;;7.20;;
76298;SDS011;65105;42.334;23.550;2022-11-15T02:56:55;7.35;;;6.65;;
76298;SDS011;65105;42.334;23.550;2022-11-15T03:05:13;7.75;;;7.25;;
76298;SDS011;65105;42.334;23.550;2022-11-15T03:10:32;9.05;;;8.50;;
76298;SDS011;65105;42.334;23.550;2022-11-15T03:15:41;20.73;;;11.55;;
76298;SDS011;65105;42.334;23.550;2022-11-15T03:18:23;8.95;;;8.25;;
76298;SDS011;65105;42.334;23.550;2022-11-15T03:21:00;7.75;;;7.20;;
76298;SDS011;65105;42.334;23.550;2022-11-15T03:23:30;8.98;;;8.20;;
76298;SDS011;65105;42.334;23.550;2022-11-15T03:25:56;7.50;;;7.00;;
76298;SDS011;65105;42.334;23.550;2022-11-15T03:28:32;8.88;;;8.13;;
76298;SDS011;65105;42.334;23.550;2022-11-15T03:31:01;7.95;;;7.35;;
76298;SDS011;65105;42.334;23.550;2022-11-15T03:33:49;8.40;;;7.80;;
76298;SDS011;65105;42.334;23.550;2022-11-15T03:36:16;8.27;;;7.68;;
76298;SDS011;65105;42.334;23.550;2022-11-15T03:38:42;6.83;;;6.33;;
76298;SDS011;65105;42.334;23.550;2022-11-15T03:41:15;7.95;;;7.15;;
76298;SDS011;65105;42.334;23.550;2022-11-15T03:43:48;8.35;;;7.65;;
76298;SDS011;65105;42.334;23.550;2022-11-15T03:46:32;9.82;;;9.00;;
76298;SDS011;65105;42.334;23.550;2022-11-15T03:49:07;8.88;;;7.95;;
76298;SDS011;65105;42.334;23.550;2022-11-15T03:51:47;7.97;;;7.23;;
76298;SDS011;65105;42.334;23.550;2022-11-15T03:54:13;7.63;;;7.07;;
76298;SDS011;65105;42.334;23.550;2022-11-15T03:56:38;7.20;;;6.70;;
76298;SDS011;65105;42.334;23.550;2022-11-15T03:59:03;7.93;;;7.43;;
76298;SDS011;65105;42.334;23.550;2022-11-15T04:01:29;9.05;;;8.45;;
76298;SDS011;65105;42.334;23.550;2022-11-15T04:03:54;10.23;;;9.43;;
76298;SDS011;65105;42.334;23.550;2022-11-15T04:06:20;8.33;;;7.73;;
76298;SDS011;65105;42.334;23.550;2022-11-15T04:08:45;8.90;;;8.20;;
76298;SDS011;65105;42.334;23.550;2022-11-15T04:11:11;8.45;;;7.85;;
76298;SDS011;65105;42.334;23.550;2022-11-15T04:13:36;7.53;;;6.97;;
76298;SDS011;65105;42.334;23.550;2022-11-15T04:16:02;8.70;;;8.10;;
76298;SDS011;65105;42.334;23.550;2022-11-15T04:18:27;7.63;;;7.00;;
76298;SDS011;65105;42.334;23.550;2022-11-15T04:20:52;7.70;;;7.15;;
76298;SDS011;65105;42.334;23.550;2022-11-15T04:23:36;7.60;;;7.00;;
76298;SDS011;65105;42.334;23.550;2022-11-15T04:26:31;8.38;;;7.78;;
76298;SDS011;65105;42.334;23.550;2022-11-15T04:28:56;7.97;;;7.47;;
76298;SDS011;65105;42.334;23.550;2022-11-15T04:31:40;8.32;;;7.72;;
76298;SDS011;65105;42.334;23.550;2022-11-15T04:34:06;7.07;;;6.47;;
76298;SDS011;65105;42.334;23.550;2022-11-15T04:36:31;8.03;;;7.43;;
76298;SDS011;65105;42.334;23.550;2022-11-15T04:39:15;7.78;;;7.28;;
76298;SDS011;65105;42.334;23.550;2022-11-15T04:41:40;9.47;;;8.77;;
76298;SDS011;65105;42.334;23.550;2022-11-15T04:44:06;7.67;;;7.13;;
76298;SDS011;65105;42.334;23.550;2022-11-15T04:46:31;8.27;;;7.67;;
76298;SDS011;65105;42.334;23.550;2022-11-15T04:48:57;7.80;;;7.20;;
76298;SDS011;65105;42.334;23.550;2022-11-15T04:51:22;7.37;;;6.87;;
76298;SDS011;65105;42.334;23.550;2022-11-15T04:53:48;9.87;;;9.17;;
76298;SDS011;65105;42.334;23.550;2022-11-15T04:56:13;9.00;;;8.40;;
76298;SDS011;65105;42.334;23.550;2022-11-15T04:58:39;8.90;;;8.30;;
76298;SDS011;65105;42.334;23.550;2022-11-15T05:01:07;7.73;;;7.03;;
76298;SDS011;65105;42.334;23.550;2022-11-15T05:03:33;9.52;;;8.57;;
76298;SDS011;65105;42.334;23.550;2022-11-15T05:06:17;9.63;;;8.73;;
76298;SDS011;65105;42.334;23.550;2022-11-15T05:08:43;9.83;;;8.93;;
76298;SDS011;65105;42.334;23.550;2022-11-15T05:11:08;8.13;;;7.53;;
76298;SDS011;65105;42.334;23.550;2022-11-15T05:13:34;9.60;;;8.90;;
76298;SDS011;65105;42.334;23.550;2022-11-15T05:15:59;7.93;;;7.23;;
76298;SDS011;65105;42.334;23.550;2022-11-15T05:18:24;7.63;;;7.07;;
76298;SDS011;65105;42.334;23.550;2022-11-15T05:20:50;6.03;;;5.53;;
76298;SDS011;65105;42.334;23.550;2022-11-15T05:23:15;7.30;;;6.57;;
76298;SDS011;65105;42.334;23.550;2022-11-15T05:25:41;8.77;;;7.87;;
76298;SDS011;65105;42.334;23.550;2022-11-15T05:28:06;9.07;;;8.18;;
76298;SDS011;65105;42.334;23.550;2022-11-15T05:30:32;9.23;;;8.33;;
76298;SDS011;65105;42.334;23.550;2022-11-15T05:32:57;8.87;;;8.17;;
76298;SDS011;65105;42.334;23.550;2022-11-15T05:35:41;8.73;;;7.53;;
76298;SDS011;65105;42.334;23.550;2022-11-15T05:38:11;9.57;;;8.52;;
76298;SDS011;65105;42.334;23.550;2022-11-15T05:40:36;8.33;;;7.50;;
76298;SDS011;65105;42.334;23.550;2022-11-15T05:43:02;8.45;;;7.60;;
76298;SDS011;65105;42.334;23.550;2022-11-15T05:45:29;11.18;;;8.38;;
76298;SDS011;65105;42.334;23.550;2022-11-15T05:47:57;10.53;;;7.33;;
76298;SDS011;65105;42.334;23.550;2022-11-15T05:50:24;10.00;;;8.07;;
76298;SDS011;65105;42.334;23.550;2022-11-15T05:52:50;9.27;;;7.93;;
76298;SDS011;65105;42.334;23.550;2022-11-15T05:55:16;10.55;;;9.45;;
76298;SDS011;65105;42.334;23.550;2022-11-15T05:57:42;11.20;;;8.57;;
76298;SDS011;65105;42.334;23.550;2022-11-15T06:00:08;11.00;;;8.43;;
76298;SDS011;65105;42.334;23.550;2022-11-15T06:02:34;12.32;;;9.93;;
76298;SDS011;65105;42.334;23.550;2022-11-15T06:04:59;10.17;;;8.23;;
76298;SDS011;65105;42.334;23.550;2022-11-15T06:07:25;9.67;;;8.97;;
76298;SDS011;65105;42.334;23.550;2022-11-15T06:09:50;9.33;;;8.43;;
76298;SDS011;65105;42.334;23.550;2022-11-15T06:12:16;29.58;;;13.18;;
76298;SDS011;65105;42.334;23.550;2022-11-15T06:14:41;12.53;;;9.17;;
76298;SDS011;65105;42.334;23.550;2022-11-15T06:17:06;8.33;;;7.53;;
76298;SDS011;65105;42.334;23.550;2022-11-15T06:19:32;7.27;;;6.67;;
76298;SDS011;65105;42.334;23.550;2022-11-15T06:21:58;9.85;;;8.90;;
76298;SDS011;65105;42.334;23.550;2022-11-15T06:24:24;9.87;;;8.87;;
76298;SDS011;65105;42.334;23.550;2022-11-15T06:26:50;9.40;;;8.70;;
76298;SDS011;65105;42.334;23.550;2022-11-15T06:29:15;10.07;;;9.37;;
76298;SDS011;65105;42.334;23.550;2022-11-15T06:31:40;8.33;;;7.63;;
76298;SDS011;65105;42.334;23.550;2022-11-15T06:34:06;9.85;;;8.32;;
76298;SDS011;65105;42.334;23.550;2022-11-15T06:36:33;10.50;;;9.50;;
76298;SDS011;65105;42.334;23.550;2022-11-15T06:38:59;10.45;;;9.38;;
76298;SDS011;65105;42.334;23.550;2022-11-15T06:41:25;8.40;;;7.70;;
76298;SDS011;65105;42.334;23.550;2022-11-15T06:43:50;10.83;;;9.90;;
76298;SDS011;65105;42.334;23.550;2022-11-15T06:46:15;11.87;;;10.37;;
76298;SDS011;65105;42.334;23.550;2022-11-15T06:48:41;11.10;;;9.97;;
76298;SDS011;65105;42.334;23.550;2022-11-15T06:51:06;12.40;;;10.05;;
76298;SDS011;65105;42.334;23.550;2022-11-15T06:53:33;11.45;;;10.07;;
76298;SDS011;65105;42.334;23.550;2022-11-15T06:55:59;13.33;;;12.13;;
76298;SDS011;65105;42.334;23.550;2022-11-15T06:58:26;13.60;;;12.35;;
76298;SDS011;65105;42.334;23.550;2022-11-15T07:00:51;35.03;;;32.50;;
76298;SDS011;65105;42.334;23.550;2022-11-15T07:03:17;43.33;;;40.92;;
76298;SDS011;65105;42.334;23.550;2022-11-15T07:05:49;46.03;;;43.00;;
76298;SDS011;65105;42.334;23.550;2022-11-15T07:08:16;25.45;;;23.27;;
76298;SDS011;65105;42.334;23.550;2022-11-15T07:10:41;46.47;;;43.53;;
76298;SDS011;65105;42.334;23.550;2022-11-15T07:13:06;29.93;;;27.57;;
76298;SDS011;65105;42.334;23.550;2022-11-15T07:15:32;57.73;;;54.53;;
76298;SDS011;65105;42.334;23.550;2022-11-15T07:18:00;12.52;;;11.63;;
76298;SDS011;65105;42.334;23.550;2022-11-15T07:20:26;36.33;;;34.03;;
76298;SDS011;65105;42.334;23.550;2022-11-15T07:22:55;55.22;;;52.08;;
76298;SDS011;65105;42.334;23.550;2022-11-15T07:25:25;30.83;;;28.88;;
76298;SDS011;65105;42.334;23.550;2022-11-15T07:27:54;46.43;;;43.67;;
76298;SDS011;65105;42.334;23.550;2022-11-15T07:30:21;40.08;;;37.78;;
76298;SDS011;65105;42.334;23.550;2022-11-15T07:32:46;81.30;;;76.47;;
76298;SDS011;65105;42.334;23.550;2022-11-15T07:35:12;94.73;;;89.53;;
76298;SDS011;65105;42.334;23.550;2022-11-15T07:37:37;269.80;;;254.18;;
76298;SDS011;65105;42.334;23.550;2022-11-15T07:40:03;362.63;;;339.93;;
76298;SDS011;65105;42.334;23.550;2022-11-15T07:42:30;432.17;;;400.07;;
76298;SDS011;65105;42.334;23.550;2022-11-15T07:45:15;408.83;;;381.30;;
76298;SDS011;65105;42.334;23.550;2022-11-15T07:47:41;598.47;;;554.72;;
76298;SDS011;65105;42.334;23.550;2022-11-15T07:50:11;239.27;;;225.27;;
76298;SDS011;65105;42.334;23.550;2022-11-15T07:52:36;339.37;;;316.23;;
76298;SDS011;65105;42.334;23.550;2022-11-15T07:55:02;679.60;;;629.37;;
76298;SDS011;65105;42.334;23.550;2022-11-15T07:57:27;459.60;;;424.45;;
76298;SDS011;65105;42.334;23.550;2022-11-15T07:59:54;946.37;;;877.77;;
76298;SDS011;65105;42.334;23.550;2022-11-15T08:02:19;868.83;;;804.83;;
76298;SDS011;65105;42.334;23.550;2022-11-15T08:04:44;728.70;;;660.00;;
76298;SDS011;65105;42.334;23.550;2022-11-15T08:07:10;926.20;;;846.00;;
76298;SDS011;65105;42.334;23.550;2022-11-15T08:09:35;814.10;;;734.10;;
76298;SDS011;65105;42.334;23.550;2022-11-15T08:12:01;1075.27;;;987.70;;
76298;SDS011;65105;42.334;23.550;2022-11-15T08:19:17;764.30;;;683.70;;
76298;SDS011;65105;42.334;23.550;2022-11-15T08:21:56;1067.00;;;973.80;;
76298;SDS011;65105;42.334;23.550;2022-11-15T08:30:17;1017.80;;;944.28;;
76298;SDS011;65105;42.334;23.550;2022-11-15T08:32:42;638.80;;;516.75;;
76298;SDS011;65105;42.334;23.550;2022-11-15T09:05:59;10.10;;;9.50;;
76298;SDS011;65105;42.334;23.550;2022-11-15T09:08:29;8.80;;;8.30;;
76298;SDS011;65105;42.334;23.550;2022-11-15T09:10:55;10.23;;;9.63;;
76298;SDS011;65105;42.334;23.550;2022-11-15T09:15:22;10.30;;;9.70;;
76298;SDS011;65105;42.334;23.550;2022-11-15T09:17:47;8.57;;;8.07;;
76298;SDS011;65105;42.334;23.550;2022-11-15T09:21:55;13.57;;;12.77;;
76298;SDS011;65105;42.334;23.550;2022-11-15T09:24:21;13.93;;;13.13;;
76298;SDS011;65105;42.334;23.550;2022-11-15T09:26:46;12.67;;;11.97;;
76298;SDS011;65105;42.334;23.550;2022-11-15T09:29:14;14.90;;;14.05;;
76298;SDS011;65105;42.334;23.550;2022-11-15T09:31:40;14.30;;;13.50;;
76298;SDS011;65236;42.332;23.550;2022-11-15T09:34:05;13.57;;;12.77;;
76298;SDS011;65236;42.332;23.550;2022-11-15T09:36:30;13.90;;;13.10;;
76298;SDS011;65236;42.332;23.550;2022-11-15T09:38:57;15.07;;;14.18;;
76298;SDS011;65236;42.332;23.550;2022-11-15T13:13:49;10.93;;;10.30;;
76298;SDS011;65236;42.332;23.550;2022-11-15T13:16:20;10.00;;;9.40;;
76298;SDS011;65236;42.332;23.550;2022-11-15T13:18:52;9.83;;;9.23;;
76298;SDS011;65236;42.332;23.550;2022-11-15T13:21:21;9.05;;;8.55;;
76298;SDS011;65236;42.332;23.550;2022-11-15T13:24:15;10.43;;;9.82;;
76298;SDS011;65236;42.332;23.550;2022-11-15T13:26:41;9.45;;;8.85;;
76298;SDS011;65236;42.332;23.550;2022-11-15T13:29:14;8.40;;;7.90;;
76298;SDS011;65236;42.332;23.550;2022-11-15T13:31:42;10.13;;;9.53;;
76298;SDS011;65236;42.332;23.550;2022-11-15T13:36:54;8.43;;;7.93;;
76298;SDS011;65236;42.332;23.550;2022-11-15T13:39:28;10.07;;;9.38;;
76298;SDS011;65236;42.332;23.550;2022-11-15T13:41:55;9.10;;;8.50;;
76298;SDS011;65236;42.332;23.550;2022-11-15T13:44:38;10.17;;;9.57;;
76298;SDS011;65236;42.332;23.550;2022-11-15T13:47:05;9.38;;;8.77;;
76298;SDS011;65236;42.332;23.550;2022-11-15T13:49:41;7.70;;;7.20;;
76298;SDS011;65236;42.332;23.550;2022-11-15T13:52:07;9.65;;;8.93;;
76298;SDS011;65236;42.332;23.550;2022-11-15T13:57:09;8.07;;;7.57;;
76298;SDS011;65236;42.332;23.550;2022-11-15T13:59:36;8.25;;;7.75;;
76298;SDS011;65236;42.332;23.550;2022-11-15T14:02:20;6.47;;;6.07;;
76298;SDS011;65236;42.332;23.550;2022-11-15T14:04:51;6.72;;;6.32;;
76298;SDS011;65236;42.332;23.550;2022-11-15T14:07:21;8.43;;;7.93;;
76298;SDS011;65236;42.332;23.550;2022-11-15T14:09:48;7.15;;;6.75;;
76298;SDS011;65236;42.332;23.550;2022-11-15T14:14:57;7.37;;;6.90;;
76298;SDS011;65236;42.332;23.550;2022-11-15T14:19:55;7.78;;;7.28;;
76298;SDS011;65236;42.332;23.550;2022-11-15T14:22:22;7.18;;;6.75;;
76298;SDS011;65236;42.332;23.550;2022-11-15T14:25:07;8.23;;;7.72;;
76298;SDS011;65236;42.332;23.550;2022-11-15T14:27:42;7.77;;;7.27;;
76298;SDS011;65236;42.332;23.550;2022-11-15T14:30:15;7.35;;;6.85;;
76298;SDS011;65236;42.332;23.550;2022-11-15T14:32:44;7.05;;;6.63;;
76298;SDS011;65236;42.332;23.550;2022-11-15T14:35:15;7.97;;;7.47;;
76298;SDS011;65236;42.332;23.550;2022-11-15T14:37:46;8.02;;;7.53;;
76298;SDS011;65236;42.332;23.550;2022-11-15T14:40:13;7.57;;;7.07;;
76298;SDS011;65236;42.332;23.550;2022-11-15T14:42:40;7.90;;;7.40;;
76298;SDS011;65236;42.332;23.550;2022-11-15T14:45:19;8.32;;;7.82;;
76298;SDS011;65236;42.332;23.550;2022-11-15T14:47:46;7.40;;;6.90;;
76298;SDS011;65236;42.332;23.550;2022-11-15T14:50:15;6.80;;;6.40;;
76298;SDS011;65236;42.332;23.550;2022-11-15T14:52:43;8.30;;;7.80;;
76298;SDS011;65236;42.332;23.550;2022-11-15T14:55:19;6.22;;;5.82;;
76298;SDS011;65236;42.332;23.550;2022-11-15T14:57:50;8.52;;;8.02;;
76298;SDS011;65236;42.332;23.550;2022-11-15T15:00:17;7.60;;;7.10;;
76298;SDS011;65236;42.332;23.550;2022-11-15T15:02:44;5.93;;;5.53;;
76298;SDS011;65236;42.332;23.550;2022-11-15T15:07:42;7.25;;;6.80;;
76298;SDS011;65236;42.332;23.550;2022-11-15T15:10:08;7.60;;;7.10;;
76298;SDS011;65236;42.332;23.550;2022-11-15T15:12:34;7.00;;;6.60;;
76298;SDS011;65236;42.332;23.550;2022-11-15T15:14:59;6.93;;;6.53;;
76298;SDS011;65236;42.332;23.550;2022-11-15T15:17:25;5.80;;;5.40;;
76298;SDS011;65236;42.332;23.550;2022-11-15T15:19:50;7.47;;;6.97;;
76298;SDS011;65236;42.332;23.550;2022-11-15T15:22:16;6.30;;;5.90;;
76298;SDS011;65236;42.332;23.550;2022-11-15T15:24:44;8.25;;;7.75;;
76298;SDS011;65236;42.332;23.550;2022-11-15T15:27:10;7.23;;;6.77;;
76298;SDS011;65236;42.332;23.550;2022-11-15T15:29:36;7.00;;;6.60;;
76298;SDS011;65236;42.332;23.550;2022-11-15T15:32:01;8.80;;;8.30;;
76298;SDS011;65236;42.332;23.550;2022-11-15T15:34:27;8.87;;;8.37;;
76298;SDS011;65236;42.332;23.550;2022-11-15T15:39:36;9.38;;;8.77;;
76298;SDS011;65236;42.332;23.550;2022-11-15T15:42:02;7.00;;;6.60;;
76298;SDS011;65236;42.332;23.550;2022-11-15T15:44:28;7.25;;;6.75;;
76298;SDS011;65236;42.332;23.550;2022-11-15T15:46:54;7.57;;;7.07;;
76298;SDS011;65236;42.332;23.550;2022-11-15T15:49:19;8.48;;;7.97;;
76298;SDS011;65236;42.332;23.550;2022-11-15T15:51:45;7.53;;;7.03;;
76298;SDS011;65236;42.332;23.550;2022-11-15T15:54:10;8.17;;;7.67;;
76298;SDS011;65236;42.332;23.550;2022-11-15T15:56:35;6.57;;;6.17;;
76298;SDS011;65236;42.332;23.550;2022-11-15T15:59:01;9.53;;;8.73;;
76298;SDS011;65236;42.332;23.550;2022-11-15T16:01:26;7.75;;;7.15;;
76298;SDS011;65236;42.332;23.550;2022-11-15T16:03:52;7.03;;;6.53;;
76298;SDS011;65236;42.332;23.550;2022-11-15T16:06:37;7.37;;;6.87;;
76298;SDS011;65236;42.332;23.550;2022-11-15T16:09:04;8.90;;;8.40;;
76298;SDS011;65236;42.332;23.550;2022-11-15T16:11:30;8.82;;;8.32;;
76298;SDS011;65236;42.332;23.550;2022-11-15T16:13:55;6.13;;;5.73;;
76298;SDS011;65236;42.332;23.550;2022-11-15T16:16:21;5.87;;;5.47;;
76298;SDS011;65236;42.332;23.550;2022-11-15T16:18:47;6.90;;;6.50;;
76298;SDS011;65236;42.332;23.550;2022-11-15T16:21:12;7.63;;;7.13;;
76298;SDS011;65236;42.332;23.550;2022-11-15T16:23:38;6.93;;;6.53;;
76298;SDS011;65236;42.332;23.550;2022-11-15T16:26:09;7.95;;;7.45;;
76298;SDS011;65236;42.332;23.550;2022-11-15T16:28:44;7.63;;;7.13;;
76298;SDS011;65236;42.332;23.550;2022-11-15T16:31:10;7.00;;;6.60;;
76298;SDS011;65236;42.332;23.550;2022-11-15T16:33:36;9.00;;;8.40;;
76298;SDS011;65236;42.332;23.550;2022-11-15T16:36:03;8.27;;;7.47;;
76298;SDS011;65236;42.332;23.550;2022-11-15T16:38:29;8.45;;;7.85;;
76298;SDS011;65236;42.332;23.550;2022-11-15T16:40:55;6.40;;;5.90;;
76298;SDS011;65236;42.332;23.550;2022-11-15T16:43:21;7.23;;;6.63;;
76298;SDS011;65236;42.332;23.550;2022-11-15T16:45:46;8.02;;;7.53;;
76298;SDS011;65236;42.332;23.550;2022-11-15T16:48:23;8.35;;;7.75;;
76298;SDS011;65236;42.332;23.550;2022-11-15T16:50:49;7.13;;;6.63;;
76298;SDS011;65236;42.332;23.550;2022-11-15T16:53:15;7.68;;;7.07;;
76298;SDS011;65236;42.332;23.550;2022-11-15T16:55:40;9.17;;;8.47;;
76298;SDS011;65236;42.332;23.550;2022-11-15T16:58:07;8.25;;;7.63;;
76298;SDS011;65236;42.332;23.550;2022-11-15T17:00:33;7.35;;;6.70;;
76298;SDS011;65236;42.332;23.550;2022-11-15T17:02:58;7.67;;;7.17;;
76298;SDS011;65236;42.332;23.550;2022-11-15T17:05:24;8.10;;;7.60;;
76298;SDS011;65236;42.332;23.550;2022-11-15T17:07:51;6.75;;;6.35;;
76298;SDS011;65236;42.332;23.550;2022-11-15T17:10:18;9.48;;;8.82;;
76298;SDS011;65236;42.332;23.550;2022-11-15T17:12:44;7.03;;;6.53;;
76298;SDS011;65236;42.332;23.550;2022-11-15T17:15:10;7.18;;;6.57;;
76298;SDS011;65236;42.332;23.550;2022-11-15T17:17:37;8.80;;;8.10;;
76298;SDS011;65236;42.332;23.550;2022-11-15T17:20:02;6.83;;;6.33;;
76298;SDS011;65236;42.332;23.550;2022-11-15T17:22:34;7.63;;;7.05;;
76298;SDS011;65236;42.332;23.550;2022-11-15T17:25:00;6.07;;;5.60;;
76298;SDS011;65236;42.332;23.550;2022-11-15T17:27:26;7.25;;;6.72;;
76298;SDS011;65236;42.332;23.550;2022-11-15T17:29:52;9.27;;;8.67;;
76298;SDS011;65236;42.332;23.550;2022-11-15T17:32:17;8.07;;;7.57;;
76298;SDS011;65236;42.332;23.550;2022-11-15T17:34:42;8.23;;;7.73;;
76298;SDS011;65236;42.332;23.550;2022-11-15T17:37:08;8.67;;;8.13;;
76298;SDS011;65236;42.332;23.550;2022-11-15T17:39:33;7.47;;;6.97;;
76298;SDS011;65236;42.332;23.550;2022-11-15T17:41:59;8.82;;;8.23;;
76298;SDS011;65236;42.332;23.550;2022-11-15T17:44:24;9.00;;;8.40;;
76298;SDS011;65236;42.332;23.550;2022-11-15T17:46:49;8.17;;;7.60;;
76298;SDS011;65236;42.332;23.550;2022-11-15T17:49:15;8.03;;;7.53;;
76298;SDS011;65236;42.332;23.550;2022-11-15T17:51:40;8.70;;;8.10;;
76298;SDS011;65236;42.332;23.550;2022-11-15T17:54:08;7.75;;;7.25;;
76298;SDS011;65236;42.332;23.550;2022-11-15T17:56:36;7.32;;;6.82;;
76298;SDS011;65236;42.332;23.550;2022-11-15T17:59:03;7.43;;;6.82;;
76298;SDS011;65236;42.332;23.550;2022-11-15T18:01:30;8.40;;;7.83;;
76298;SDS011;65236;42.332;23.550;2022-11-15T18:04:00;9.45;;;8.75;;
76298;SDS011;65236;42.332;23.550;2022-11-15T18:06:27;8.50;;;7.90;;
76298;SDS011;65236;42.332;23.550;2022-11-15T18:08:54;8.57;;;8.03;;
76298;SDS011;65236;42.332;23.550;2022-11-15T18:11:31;8.48;;;7.97;;
76298;SDS011;65236;42.332;23.550;2022-11-15T18:14:02;8.40;;;7.88;;
76298;SDS011;65236;42.332;23.550;2022-11-15T18:16:31;8.02;;;7.53;;
76298;SDS011;65236;42.332;23.550;2022-11-15T18:18:59;8.05;;;7.55;;
76298;SDS011;65236;42.332;23.550;2022-11-15T18:21:25;9.07;;;8.53;;
76298;SDS011;65236;42.332;23.550;2022-11-15T18:23:55;7.05;;;6.55;;
76298;SDS011;65236;42.332;23.550;2022-11-15T18:26:23;8.60;;;8.00;;
76298;SDS011;65236;42.332;23.550;2022-11-15T18:28:51;7.83;;;7.33;;
76298;SDS011;65236;42.332;23.550;2022-11-15T18:31:23;7.35;;;6.85;;
76298;SDS011;65236;42.332;23.550;2022-11-15T18:33:51;8.63;;;7.93;;
76298;SDS011;65236;42.332;23.550;2022-11-15T18:36:18;6.85;;;6.35;;
76298;SDS011;65236;42.332;23.550;2022-11-15T18:38:45;8.57;;;7.97;;
76298;SDS011;65236;42.332;23.550;2022-11-15T18:43:43;7.78;;;7.28;;
76298;SDS011;65236;42.332;23.550;2022-11-15T18:46:10;9.02;;;8.43;;
76298;SDS011;65236;42.332;23.550;2022-11-15T18:48:41;9.45;;;8.75;;
76298;SDS011;65236;42.332;23.550;2022-11-15T18:51:09;8.50;;;7.83;;
76298;SDS011;65236;42.332;23.550;2022-11-15T18:53:36;8.27;;;7.60;;
76298;SDS011;65236;42.332;23.550;2022-11-15T18:56:03;8.02;;;7.43;;
76298;SDS011;65236;42.332;23.550;2022-11-15T18:58:31;6.82;;;6.32;;
76298;SDS011;65236;42.332;23.550;2022-11-15T19:01:05;8.35;;;7.75;;
76298;SDS011;65236;42.332;23.550;2022-11-15T19:03:32;7.40;;;6.90;;
76298;SDS011;65236;42.332;23.550;2022-11-15T19:06:11;8.20;;;7.60;;
76298;SDS011;65236;42.332;23.550;2022-11-15T19:08:49;8.57;;;7.97;;
76298;SDS011;65236;42.332;23.550;2022-11-15T19:11:21;7.35;;;6.85;;
76298;SDS011;65236;42.332;23.550;2022-11-15T19:13:53;8.15;;;7.65;;
76298;SDS011;65236;42.332;23.550;2022-11-15T19:16:20;8.07;;;7.47;;
76298;SDS011;65236;42.332;23.550;2022-11-15T19:18:46;8.13;;;7.55;;
76298;SDS011;65236;42.332;23.550;2022-11-15T19:21:12;6.57;;;6.07;;
76298;SDS011;65236;42.332;23.550;2022-11-15T19:23:38;7.20;;;6.70;;
76298;SDS011;65236;42.332;23.550;2022-11-15T19:26:08;8.63;;;8.13;;
76298;SDS011;65236;42.332;23.550;2022-11-15T19:28:35;7.15;;;6.65;;
76298;SDS011;65236;42.332;23.550;2022-11-15T19:31:07;8.17;;;7.57;;
76298;SDS011;65236;42.332;23.550;2022-11-15T19:33:37;8.18;;;7.65;;
76298;SDS011;65236;42.332;23.550;2022-11-15T19:36:04;8.75;;;8.25;;
76298;SDS011;65236;42.332;23.550;2022-11-15T19:38:31;8.63;;;7.93;;
76298;SDS011;65236;42.332;23.550;2022-11-15T19:40:58;7.33;;;6.83;;
76298;SDS011;65236;42.332;23.550;2022-11-15T19:43:25;6.47;;;5.97;;